createdAt,value
2023-01-28T00:00:56.946Z,37.70
2023-01-28T00:03:24.148Z,45.00
2023-01-28T00:05:52.257Z,39.23
2023-01-28T00:08:19.264Z,38.53
2023-01-28T00:10:46.283Z,38.13
2023-01-28T00:13:14.873Z,40.03
2023-01-28T00:15:42.668Z,38.57
2023-01-28T00:18:09.967Z,36.87
2023-01-28T00:20:37.090Z,41.57
2023-01-28T00:23:04.197Z,38.20
2023-01-28T00:25:31.631Z,36.40
2023-01-28T00:27:58.865Z,35.23
2023-01-28T00:30:25.831Z,37.47
2023-01-28T00:32:55.627Z,34.37
2023-01-28T00:35:22.733Z,37.50
2023-01-28T00:37:49.750Z,38.47
2023-01-28T00:40:17.281Z,31.50
2023-01-28T00:42:44.336Z,36.87
2023-01-28T00:45:11.679Z,33.90
2023-01-28T00:47:38.751Z,31.17
2023-01-28T00:50:06.477Z,31.83
2023-01-28T00:52:33.506Z,30.10
2023-01-28T00:55:01.127Z,33.83
2023-01-28T00:57:28.170Z,32.97
2023-01-28T00:59:55.186Z,33.73
2023-01-28T01:02:23.090Z,30.37
2023-01-28T01:04:59.085Z,28.13
2023-01-28T01:07:41.497Z,32.23
2023-01-28T01:10:18.227Z,30.80
2023-01-28T01:12:49.659Z,28.87
2023-01-28T01:15:18.984Z,30.73
2023-01-28T01:17:49.042Z,29.43
2023-01-28T01:20:20.798Z,29.90
2023-01-28T01:22:48.527Z,29.70
2023-01-28T01:25:17.578Z,28.57
2023-01-28T01:27:48.418Z,29.37
2023-01-28T01:30:17.073Z,26.57
2023-01-28T01:32:44.133Z,27.00
2023-01-28T01:35:11.419Z,29.87
2023-01-28T01:37:38.447Z,25.67
2023-01-28T01:40:06.325Z,30.87
2023-01-28T01:42:33.772Z,24.83
2023-01-28T01:45:07.145Z,25.30
2023-01-28T01:48:05.873Z,26.80
2023-01-28T01:50:42.156Z,29.47
2023-01-28T01:53:16.076Z,23.13
2023-01-28T01:55:49.969Z,26.83
2023-01-28T01:58:21.647Z,28.33
2023-01-28T02:00:48.658Z,25.33
2023-01-28T02:03:21.834Z,22.70
2023-01-28T02:05:50.819Z,22.03
2023-01-28T02:08:25.558Z,24.70
2023-01-28T02:11:05.372Z,22.80
2023-01-28T02:13:57.111Z,22.17
2023-01-28T02:16:25.447Z,20.53
2023-01-28T02:18:52.497Z,22.53
2023-01-28T02:21:22.341Z,22.80
2023-01-28T02:24:16.576Z,24.23
2023-01-28T02:27:11.367Z,20.03
2023-01-28T02:30:16.364Z,23.33
2023-01-28T02:33:07.013Z,24.73
2023-01-28T02:35:53.624Z,24.30
2023-01-28T02:38:33.167Z,22.40
2023-01-28T02:41:13.945Z,23.20
2023-01-28T02:43:47.008Z,20.50
2023-01-28T02:46:44.604Z,18.70
2023-01-28T02:49:25.865Z,21.30
2023-01-28T02:52:42.137Z,20.70
2023-01-28T02:55:34.104Z,19.20
2023-01-28T02:58:06.869Z,20.93
2023-01-28T03:01:08.572Z,21.57
2023-01-28T03:03:40.572Z,20.57
2023-01-28T03:06:18.432Z,22.10
2023-01-28T03:09:17.909Z,20.80
2023-01-28T03:12:11.975Z,21.03
2023-01-28T03:14:59.105Z,20.30
2023-01-28T03:17:51.909Z,18.87
2023-01-28T03:20:39.648Z,22.40
2023-01-28T03:23:30.328Z,21.37
2023-01-28T03:26:18.521Z,19.30
2023-01-28T03:29:06.466Z,19.87
2023-01-28T03:31:54.299Z,20.17
2023-01-28T03:34:41.610Z,18.50
2023-01-28T03:37:09.841Z,22.73
2023-01-28T03:39:38.805Z,22.90
2023-01-28T03:42:10.291Z,21.37
2023-01-28T03:44:53.397Z,18.70
2023-01-28T03:47:27.088Z,23.77
2023-01-28T03:49:56.996Z,23.63
2023-01-28T03:52:32.220Z,19.23
2023-01-28T03:54:59.676Z,20.57
2023-01-28T03:57:28.620Z,20.63
2023-01-28T03:59:55.688Z,26.03
2023-01-28T04:02:23.505Z,21.00
2023-01-28T04:04:50.796Z,22.07
2023-01-28T04:07:18.430Z,22.37
2023-01-28T04:09:45.769Z,28.50
2023-01-28T04:12:12.838Z,24.53
2023-01-28T04:14:40.285Z,24.33
2023-01-28T04:17:10.648Z,21.73
2023-01-28T04:19:38.677Z,26.40
2023-01-28T04:22:08.190Z,24.23
2023-01-28T04:24:35.264Z,23.43
2023-01-28T04:27:02.327Z,24.40
2023-01-28T04:29:29.347Z,24.57
2023-01-28T04:31:56.521Z,20.27
2023-01-28T04:34:23.550Z,22.63
2023-01-28T04:36:50.626Z,23.20
2023-01-28T04:39:17.605Z,20.63
2023-01-28T04:41:44.632Z,22.63
2023-01-28T04:44:11.682Z,21.73
2023-01-28T04:46:38.708Z,21.77
2023-01-28T04:49:05.712Z,20.30
2023-01-28T04:51:32.732Z,21.67
2023-01-28T04:53:59.775Z,21.07
2023-01-28T04:56:26.855Z,20.63
2023-01-28T04:58:53.859Z,24.27
2023-01-28T05:01:20.856Z,21.27
2023-01-28T05:03:47.838Z,19.13
2023-01-28T05:06:14.810Z,22.43
2023-01-28T05:08:41.891Z,19.40
2023-01-28T05:11:08.901Z,23.10
2023-01-28T05:13:35.976Z,20.03
2023-01-28T05:16:03.082Z,19.57
2023-01-28T05:18:30.152Z,21.63
2023-01-28T05:20:58.099Z,22.63
2023-01-28T05:23:25.082Z,24.03
2023-01-28T05:25:52.079Z,21.67
2023-01-28T05:28:19.064Z,21.63
2023-01-28T05:30:46.107Z,19.57
2023-01-28T05:33:13.133Z,23.50
2023-01-28T05:35:40.243Z,18.53
2023-01-28T05:38:07.221Z,21.50
2023-01-28T05:40:34.190Z,24.10
2023-01-28T05:43:01.292Z,20.97
2023-01-28T05:45:28.363Z,20.60
2023-01-28T05:47:55.376Z,21.17
2023-01-28T05:50:22.375Z,20.57
2023-01-28T05:52:49.424Z,23.17
2023-01-28T05:55:16.836Z,23.07
2023-01-28T05:57:44.818Z,23.13
2023-01-28T06:00:13.321Z,23.87
2023-01-28T06:02:40.519Z,23.87
2023-01-28T06:05:08.503Z,20.27
2023-01-28T06:07:35.648Z,23.20
2023-01-28T06:10:02.780Z,21.77
2023-01-28T06:12:29.752Z,21.40
2023-01-28T06:14:56.858Z,20.77
2023-01-28T06:17:23.841Z,21.37
2023-01-28T06:19:50.913Z,22.03
2023-01-28T06:22:17.871Z,23.97
2023-01-28T06:24:45.277Z,26.00
2023-01-28T06:27:12.274Z,24.13
2023-01-28T06:29:39.398Z,25.90
2023-01-28T06:32:07.670Z,22.07
2023-01-28T06:34:34.685Z,20.43
2023-01-28T06:37:01.676Z,19.67
2023-01-28T06:39:31.861Z,20.43
2023-01-28T06:41:59.305Z,22.07
2023-01-28T06:44:26.739Z,20.70
2023-01-28T06:46:53.715Z,22.67
2023-01-28T06:49:21.903Z,22.33
2023-01-28T06:51:49.484Z,20.60
2023-01-28T06:54:16.614Z,23.70
2023-01-28T06:56:44.244Z,20.90
2023-01-28T06:59:11.373Z,21.63
2023-01-28T07:01:38.442Z,19.50
2023-01-28T07:04:05.680Z,22.53
2023-01-28T07:06:33.087Z,21.97
2023-01-28T07:09:00.286Z,20.90
2023-01-28T07:11:27.364Z,21.20
2023-01-28T07:13:54.430Z,19.83
2023-01-28T07:16:21.409Z,21.10
2023-01-28T07:18:48.414Z,19.73
2023-01-28T07:21:15.424Z,22.10
2023-01-28T07:23:42.468Z,21.47
2023-01-28T07:26:10.003Z,20.70
2023-01-28T07:28:37.017Z,18.93
2023-01-28T07:31:04.183Z,19.17
2023-01-28T07:33:31.335Z,19.60
2023-01-28T07:35:58.338Z,16.90
2023-01-28T07:38:25.309Z,20.07
2023-01-28T07:40:52.298Z,22.20
2023-01-28T07:43:19.409Z,22.80
2023-01-28T07:45:48.553Z,19.30
2023-01-28T07:48:15.926Z,20.20
2023-01-28T07:50:43.074Z,20.10
2023-01-28T07:53:12.462Z,18.27
2023-01-28T07:55:39.875Z,16.97
2023-01-28T07:58:08.637Z,17.70
2023-01-28T08:00:37.483Z,18.67
2023-01-28T08:03:08.101Z,17.83
2023-01-28T08:05:50.161Z,19.80
2023-01-28T08:08:17.718Z,16.97
2023-01-28T08:10:45.610Z,17.40
2023-01-28T08:13:14.533Z,19.17
2023-01-28T08:15:42.140Z,19.93
2023-01-28T08:18:13.361Z,17.83
2023-01-28T08:20:43.011Z,18.60
2023-01-28T08:23:15.028Z,13.63
2023-01-28T08:25:42.705Z,16.53
2023-01-28T08:28:10.721Z,18.50
2023-01-28T08:30:39.141Z,17.60
2023-01-28T08:33:09.247Z,16.33
2023-01-28T08:35:36.427Z,17.10
2023-01-28T08:38:06.384Z,17.93
2023-01-28T08:40:34.504Z,16.83
2023-01-28T08:43:01.865Z,17.23
2023-01-28T08:45:29.323Z,18.90
2023-01-28T08:48:15.965Z,18.67
2023-01-28T08:50:43.967Z,17.73
2023-01-28T08:53:20.888Z,17.17
2023-01-28T08:55:48.387Z,19.00
2023-01-28T08:58:18.452Z,17.60
2023-01-28T09:00:46.344Z,19.57
2023-01-28T09:03:13.663Z,18.83
2023-01-28T09:05:41.032Z,15.17
2023-01-28T09:08:12.761Z,18.00
2023-01-28T09:10:41.343Z,16.47
2023-01-28T09:13:14.971Z,15.03
2023-01-28T09:15:42.972Z,18.37
2023-01-28T09:18:10.792Z,16.83
2023-01-28T09:20:38.293Z,20.37
2023-01-28T09:23:06.530Z,18.30
2023-01-28T09:25:36.123Z,16.33
2023-01-28T09:28:03.611Z,16.50
2023-01-28T09:30:31.003Z,17.47
2023-01-28T09:32:58.782Z,18.80
2023-01-28T09:35:26.324Z,20.90
2023-01-28T09:37:58.497Z,16.17
2023-01-28T09:40:45.138Z,19.33
2023-01-28T09:43:42.458Z,19.27
2023-01-28T09:46:14.640Z,15.50
2023-01-28T09:48:48.901Z,20.13
2023-01-28T09:51:42.023Z,17.73
2023-01-28T09:54:44.378Z,16.57
2023-01-28T09:57:27.612Z,17.20
2023-01-28T09:59:54.609Z,16.03
2023-01-28T10:02:49.366Z,20.10
2023-01-28T10:06:17.728Z,18.07
2023-01-28T10:09:19.194Z,17.27
2023-01-28T10:12:27.343Z,16.07
2023-01-28T10:15:22.545Z,18.60
2023-01-28T10:18:07.195Z,17.73
2023-01-28T10:21:10.407Z,16.23
2023-01-28T10:24:00.392Z,14.80
2023-01-28T10:26:37.033Z,22.03
2023-01-28T10:29:19.395Z,22.67
2023-01-28T10:32:05.616Z,20.37
2023-01-28T10:34:32.729Z,20.17
2023-01-28T10:37:00.237Z,21.90
2023-01-28T10:39:29.636Z,18.33
2023-01-28T10:41:58.595Z,17.40
2023-01-28T10:44:39.091Z,19.57
2023-01-28T10:47:25.258Z,17.83
2023-01-28T10:49:58.009Z,19.03
2023-01-28T10:52:24.979Z,17.40
2023-01-28T10:55:06.546Z,18.77
2023-01-28T10:57:34.845Z,16.27
2023-01-28T11:00:36.905Z,21.20
2023-01-28T11:03:04.137Z,17.70
2023-01-28T11:05:31.862Z,16.00
2023-01-28T11:08:15.405Z,17.53
2023-01-28T11:10:43.288Z,19.87
2023-01-28T11:13:19.908Z,19.60
2023-01-28T11:16:04.353Z,20.13
2023-01-28T11:18:40.060Z,15.87
2023-01-28T11:21:19.748Z,19.27
2023-01-28T11:23:51.638Z,19.43
2023-01-28T11:26:26.407Z,14.93
2023-01-28T11:28:54.130Z,17.93
2023-01-28T11:31:24.322Z,15.00
2023-01-28T11:34:00.013Z,19.60
2023-01-28T11:36:30.337Z,17.50
2023-01-28T11:39:16.249Z,15.40
2023-01-28T11:41:43.424Z,16.73
2023-01-28T11:44:27.050Z,18.67
2023-01-28T11:47:14.653Z,18.57
2023-01-28T11:50:33.756Z,18.17
2023-01-28T11:53:32.348Z,19.77
2023-01-28T11:56:43.444Z,16.97
2023-01-28T11:59:28.311Z,15.07
2023-01-28T12:02:31.349Z,17.53
2023-01-28T12:05:34.861Z,17.27
2023-01-28T12:08:30.446Z,17.30
2023-01-28T12:11:07.856Z,15.97
2023-01-28T12:14:08.547Z,16.77
2023-01-28T12:17:09.606Z,16.47
2023-01-28T12:20:08.269Z,18.57
2023-01-28T12:23:03.554Z,16.13
2023-01-28T12:25:39.369Z,17.47
2023-01-28T12:28:30.631Z,18.83
2023-01-28T12:31:32.609Z,14.80
2023-01-28T12:34:52.539Z,18.77
2023-01-28T12:38:15.098Z,17.77
2023-01-28T12:41:08.891Z,19.80
2023-01-28T12:43:41.621Z,19.53
2023-01-28T12:46:39.128Z,21.20
2023-01-28T12:49:17.721Z,18.70
2023-01-28T12:52:18.020Z,18.70
2023-01-28T12:55:15.704Z,20.10
2023-01-28T12:57:43.869Z,22.67
2023-01-28T13:00:46.221Z,23.90
2023-01-28T13:03:35.391Z,21.17
2023-01-28T13:06:44.725Z,24.20
2023-01-28T13:09:24.530Z,27.37
2023-01-28T13:11:57.214Z,26.73
2023-01-28T13:14:31.100Z,26.50
2023-01-28T13:17:11.017Z,24.27
2023-01-28T13:19:41.818Z,23.17
2023-01-28T13:22:29.269Z,23.50
2023-01-28T13:24:56.409Z,24.50
2023-01-28T13:27:29.147Z,32.37
2023-01-28T13:30:30.926Z,26.80
2023-01-28T13:33:04.941Z,45.40
2023-01-28T13:35:39.423Z,23.90
2023-01-28T13:38:18.064Z,22.00
2023-01-28T13:40:56.220Z,24.87
2023-01-28T13:43:41.564Z,24.33
2023-01-28T13:46:26.943Z,21.13
2023-01-28T13:48:58.769Z,25.30
2023-01-28T13:51:35.656Z,20.97
2023-01-28T13:54:21.756Z,20.47
2023-01-28T13:57:01.116Z,22.43
2023-01-28T13:59:39.652Z,20.20
2023-01-28T14:02:06.571Z,19.73
2023-01-28T14:05:20.512Z,22.10
2023-01-28T14:07:54.647Z,18.00
2023-01-28T14:10:49.204Z,17.70
2023-01-28T14:13:30.944Z,20.93
2023-01-28T14:16:38.665Z,21.40
2023-01-28T14:19:09.406Z,20.70
2023-01-28T14:21:37.014Z,20.00
2023-01-28T14:24:05.044Z,16.67
2023-01-28T14:27:05.800Z,18.77
2023-01-28T14:30:03.858Z,18.13
2023-01-28T14:32:33.310Z,18.07
2023-01-28T14:35:07.318Z,20.97
2023-01-28T14:37:35.028Z,20.60
2023-01-28T14:40:08.007Z,23.37
2023-01-28T14:42:42.224Z,22.37
2023-01-28T14:45:48.966Z,19.63
2023-01-28T14:48:58.422Z,24.40
2023-01-28T14:52:07.189Z,23.50
2023-01-28T14:55:13.874Z,26.50
2023-01-28T14:57:56.554Z,20.37
2023-01-28T15:00:30.897Z,23.37
2023-01-28T15:02:57.971Z,18.07
2023-01-28T15:05:28.290Z,19.13
2023-01-28T15:07:56.508Z,22.17
2023-01-28T15:10:38.127Z,19.00
2023-01-28T15:13:24.428Z,19.17
2023-01-28T15:15:58.064Z,19.90
2023-01-28T15:18:45.705Z,20.30
2023-01-28T15:21:12.760Z,23.43
2023-01-28T15:23:43.861Z,19.13
2023-01-28T15:26:27.504Z,16.00
2023-01-28T15:28:56.024Z,13.80
2023-01-28T15:31:28.256Z,16.07
2023-01-28T15:34:16.760Z,15.87
2023-01-28T15:36:44.459Z,18.47
2023-01-28T15:39:22.958Z,23.33
2023-01-28T15:41:58.948Z,21.27
2023-01-28T15:44:38.036Z,22.67
2023-01-28T15:47:23.657Z,21.47
2023-01-28T15:49:58.072Z,21.97
2023-01-28T15:52:39.190Z,25.57
2023-01-28T15:55:29.228Z,25.43
2023-01-28T15:57:56.611Z,25.40
2023-01-28T16:00:25.547Z,24.00
2023-01-28T16:02:55.457Z,25.37
2023-01-28T16:05:39.812Z,23.80
2023-01-28T16:08:28.424Z,21.63
2023-01-28T16:10:57.182Z,18.50
2023-01-28T16:13:28.155Z,15.83
2023-01-28T16:15:57.329Z,16.03
2023-01-28T16:18:37.250Z,15.57
2023-01-28T16:21:09.994Z,17.07
2023-01-28T16:23:39.451Z,16.33
2023-01-28T16:26:24.102Z,15.03
2023-01-28T16:28:51.264Z,16.03
2023-01-28T16:31:19.077Z,15.87
2023-01-28T16:33:46.457Z,17.67
2023-01-28T16:36:16.830Z,17.27
2023-01-28T16:38:43.885Z,18.00
2023-01-28T16:41:23.951Z,19.73
2023-01-28T16:43:50.950Z,16.97
2023-01-28T16:46:18.067Z,16.00
2023-01-28T16:48:45.252Z,16.70
2023-01-28T16:51:19.617Z,14.57
2023-01-28T16:53:48.489Z,16.73
2023-01-28T16:56:35.969Z,15.17
2023-01-28T16:59:06.052Z,18.33
2023-01-28T17:01:33.761Z,17.00
2023-01-28T17:04:00.888Z,15.00
2023-01-28T17:06:27.903Z,13.80
2023-01-28T17:08:54.944Z,13.33
2023-01-28T17:11:22.635Z,13.73
2023-01-28T17:13:49.629Z,13.77
2023-01-28T17:16:16.652Z,13.30
2023-01-28T17:18:43.660Z,15.47
2023-01-28T17:21:11.128Z,16.40
2023-01-28T17:23:39.054Z,14.37
2023-01-28T17:26:07.575Z,16.33
2023-01-28T17:28:35.382Z,19.57
2023-01-28T17:31:14.085Z,13.60
2023-01-28T17:33:42.526Z,13.80
2023-01-28T17:36:10.228Z,14.57
2023-01-28T17:38:37.456Z,14.60
2023-01-28T17:41:08.672Z,15.03
2023-01-28T17:43:35.678Z,21.40
2023-01-28T17:46:14.493Z,14.10
2023-01-28T17:48:44.064Z,14.03
2023-01-28T17:51:11.683Z,14.73
2023-01-28T17:53:39.346Z,14.90
2023-01-28T17:56:06.788Z,17.00
2023-01-28T17:58:33.757Z,14.13
2023-01-28T18:01:10.131Z,13.50
2023-01-28T18:03:37.372Z,14.03
2023-01-28T18:06:04.545Z,13.23
2023-01-28T18:08:31.570Z,16.77
2023-01-28T18:10:59.438Z,18.20
2023-01-28T18:13:26.379Z,17.43
2023-01-28T18:15:53.377Z,14.83
2023-01-28T18:18:20.352Z,15.10
2023-01-28T18:20:58.979Z,11.50
2023-01-28T18:23:26.100Z,11.23
2023-01-28T18:25:57.624Z,8.00
2023-01-28T18:28:25.568Z,7.90
2023-01-28T18:30:53.090Z,7.53
2023-01-28T18:33:22.225Z,7.17
2023-01-28T18:35:49.490Z,7.53
2023-01-28T18:38:18.533Z,5.23
2023-01-28T18:40:46.751Z,11.97
2023-01-28T18:43:14.601Z,12.33
2023-01-28T18:45:45.662Z,8.17
2023-01-28T18:48:12.722Z,9.90
2023-01-28T18:50:39.683Z,8.63
2023-01-28T18:53:06.800Z,10.87
2023-01-28T18:55:33.928Z,9.03
2023-01-28T18:58:00.930Z,8.43
2023-01-28T19:00:27.919Z,11.40
2023-01-28T19:02:54.870Z,12.73
2023-01-28T19:05:21.885Z,12.30
2023-01-28T19:07:48.900Z,11.47
2023-01-28T19:10:19.474Z,9.40
2023-01-28T19:12:46.825Z,13.50
2023-01-28T19:15:14.193Z,12.67
2023-01-28T19:17:42.356Z,11.93
2023-01-28T19:20:10.480Z,13.73
2023-01-28T19:22:37.546Z,12.63
2023-01-28T19:25:05.589Z,10.67
2023-01-28T19:27:32.606Z,10.30
2023-01-28T19:29:59.599Z,9.90
2023-01-28T19:32:27.857Z,12.17
2023-01-28T19:34:55.075Z,12.63
2023-01-28T19:37:22.801Z,11.20
2023-01-28T19:39:49.989Z,9.83
2023-01-28T19:42:17.018Z,8.47
2023-01-28T19:44:44.033Z,8.37
2023-01-28T19:47:11.068Z,13.47
2023-01-28T19:49:38.053Z,12.57
2023-01-28T19:52:09.046Z,10.43
2023-01-28T19:54:36.063Z,11.23
2023-01-28T19:57:03.066Z,10.40
2023-01-28T19:59:30.069Z,10.03
2023-01-28T20:01:57.128Z,8.20
2023-01-28T20:04:24.151Z,11.20
2023-01-28T20:06:51.134Z,8.13
2023-01-28T20:09:22.199Z,11.50
2023-01-28T20:11:49.238Z,11.60
2023-01-28T20:14:18.061Z,7.83
2023-01-28T20:16:45.059Z,10.33
2023-01-28T20:19:19.064Z,10.43
2023-01-28T20:21:47.287Z,8.63
2023-01-28T20:24:15.726Z,8.83
2023-01-28T20:26:44.090Z,9.93
2023-01-28T20:29:20.673Z,9.93
2023-01-28T20:32:00.875Z,12.53
2023-01-28T20:34:32.098Z,10.17
2023-01-28T20:36:59.103Z,12.10
2023-01-28T20:39:26.101Z,10.50
2023-01-28T20:41:53.201Z,9.37
2023-01-28T20:44:20.378Z,12.53
2023-01-28T20:46:47.348Z,15.63
2023-01-28T20:49:14.333Z,16.67
2023-01-28T20:51:41.285Z,11.83
2023-01-28T20:54:08.308Z,12.23
2023-01-28T20:56:35.338Z,12.70
2023-01-28T20:59:05.943Z,14.13
2023-01-28T21:01:35.488Z,10.43
2023-01-28T21:04:08.497Z,11.40
2023-01-28T21:06:37.848Z,10.83
2023-01-28T21:09:06.150Z,8.73
2023-01-28T21:11:33.369Z,8.57
2023-01-28T21:14:00.447Z,9.13
2023-01-28T21:16:28.485Z,9.87
2023-01-28T21:18:55.467Z,8.07
2023-01-28T21:21:26.494Z,12.73
2023-01-28T21:23:56.820Z,10.83
2023-01-28T21:26:24.563Z,10.13
2023-01-28T21:28:52.083Z,13.23
2023-01-28T21:31:25.413Z,10.93
2023-01-28T21:33:55.433Z,12.33
2023-01-28T21:36:24.144Z,9.67
2023-01-28T21:39:00.058Z,10.63
2023-01-28T21:41:27.919Z,11.20
2023-01-28T21:43:57.599Z,11.70
2023-01-28T21:46:28.865Z,11.27
2023-01-28T21:48:58.407Z,11.10
2023-01-28T21:51:35.594Z,11.00
2023-01-28T21:54:04.876Z,10.33
2023-01-28T21:56:32.023Z,10.13
2023-01-28T21:59:17.504Z,13.53
2023-01-28T22:01:45.284Z,10.23
2023-01-28T22:04:13.161Z,11.27
2023-01-28T22:06:42.288Z,10.63
2023-01-28T22:09:11.937Z,8.93
2023-01-28T22:11:40.711Z,9.43
2023-01-28T22:14:08.027Z,9.87
2023-01-28T22:16:35.880Z,7.77
2023-01-28T22:19:03.478Z,12.13
2023-01-28T22:21:31.203Z,10.53
2023-01-28T22:23:58.578Z,12.30
2023-01-28T22:26:25.662Z,9.00
2023-01-28T22:28:52.668Z,11.47
2023-01-28T22:31:19.849Z,10.13
2023-01-28T22:33:46.965Z,10.50
2023-01-28T22:36:16.288Z,9.27
2023-01-28T22:38:45.259Z,11.33
2023-01-28T22:41:18.943Z,10.13
2023-01-28T22:43:47.105Z,10.27
2023-01-28T22:46:15.134Z,12.50
2023-01-28T22:48:42.195Z,10.27
2023-01-28T22:51:18.873Z,9.57
2023-01-28T22:53:47.397Z,8.97
2023-01-28T22:56:15.555Z,10.63
2023-01-28T22:58:42.864Z,8.77
2023-01-28T23:01:10.309Z,7.90
2023-01-28T23:03:37.452Z,9.00
2023-01-28T23:06:05.857Z,10.50
2023-01-28T23:08:33.613Z,9.60
2023-01-28T23:11:02.745Z,8.53
2023-01-28T23:13:50.943Z,11.10
2023-01-28T23:16:36.575Z,8.63
2023-01-28T23:19:22.953Z,10.60
2023-01-28T23:22:09.470Z,9.23
2023-01-28T23:24:36.450Z,8.20
2023-01-28T23:27:03.726Z,10.87
2023-01-28T23:29:31.811Z,14.90
2023-01-28T23:32:09.846Z,10.97
2023-01-28T23:34:44.533Z,10.43
2023-01-28T23:37:15.776Z,9.73
2023-01-28T23:39:43.271Z,12.27
2023-01-28T23:42:21.237Z,11.10
2023-01-28T23:44:48.443Z,9.90
2023-01-28T23:47:15.960Z,9.63
2023-01-28T23:49:43.001Z,10.20
2023-01-28T23:52:10.684Z,12.17
2023-01-28T23:54:37.917Z,12.43
2023-01-28T23:57:05.147Z,8.73
2023-01-28T23:59:32.576Z,8.70
